Time;durP1;ratioP1;P1;durP2;ratioP2;P2;SDS_P1;SDS_P2;PMS_P1;PMS_P2;Temp;Humidity;BMP_temperature;BMP_pressure;BME280_temperature;BME280_humidity;BME280_pressure;Samples;Min_cycle;Max_cycle;Signal;HPM_P1;HPM_P2
2021/06/26 00:00:46;;;;;;;22.33;16.33;;;;;;;17.34;72.38;98622.75;4992973;28;20034;-81
2021/06/26 00:03:12;;;;;;;22.55;15.50;;;;;;;17.36;72.50;98621.28;4992710;28;20030;-88
2021/06/26 00:05:37;;;;;;;23.13;14.82;;;;;;;17.38;72.47;98629.25;4993158;28;20092;-87
2021/06/26 00:08:03;;;;;;;22.65;14.85;;;;;;;17.35;72.15;98625.22;4995460;28;20117;-89
2021/06/26 00:10:28;;;;;;;21.00;14.57;;;;;;;17.31;72.43;98629.00;4996744;28;20027;-89
2021/06/26 00:12:54;;;;;;;19.15;14.07;;;;;;;17.29;72.56;98620.22;4995791;28;20539;-87
2021/06/26 00:15:19;;;;;;;22.38;15.80;;;;;;;17.25;72.65;98623.66;5015885;28;20022;-85
2021/06/26 00:17:44;;;;;;;22.17;14.65;;;;;;;17.20;72.40;98614.72;5035413;28;20028;-85
2021/06/26 00:20:10;;;;;;;21.40;14.43;;;;;;;17.23;72.61;98627.91;5035694;28;20021;-84
2021/06/26 00:22:36;;;;;;;22.05;14.50;;;;;;;17.22;72.66;98615.19;5035351;28;20025;-83
2021/06/26 00:25:01;;;;;;;21.08;15.23;;;;;;;17.20;72.97;98612.75;5035468;28;20045;-84
2021/06/26 00:27:29;;;;;;;25.75;17.73;;;;;;;17.19;72.73;98602.00;5035292;28;20120;-83
2021/06/26 00:29:54;;;;;;;23.63;16.52;;;;;;;17.18;72.64;98609.50;5035064;28;20025;-79
2021/06/26 00:32:20;;;;;;;23.73;16.65;;;;;;;17.20;73.08;98606.41;5035293;28;20025;-81
2021/06/26 00:34:45;;;;;;;25.20;16.45;;;;;;;17.20;72.85;98604.44;5035479;28;20083;-81
2021/06/26 00:37:10;;;;;;;24.10;15.70;;;;;;;17.23;72.85;98611.25;5029110;28;20018;-81
2021/06/26 00:39:36;;;;;;;21.42;14.90;;;;;;;17.23;72.86;98616.81;5023935;28;20040;-82
2021/06/26 00:42:03;;;;;;;20.13;14.25;;;;;;;17.20;73.21;98618.31;5025162;28;20030;-81
2021/06/26 00:44:28;;;;;;;20.00;14.80;;;;;;;17.19;72.74;98619.47;5023875;28;20118;-84
2021/06/26 00:46:53;;;;;;;19.50;13.57;;;;;;;17.16;73.06;98625.66;5024338;28;20029;-82
2021/06/26 00:49:19;;;;;;;21.42;14.20;;;;;;;17.13;73.41;98626.34;5025245;28;20367;-81
2021/06/26 00:51:44;;;;;;;20.70;15.05;;;;;;;17.07;73.21;98631.28;5023205;28;20026;-81
2021/06/26 00:54:10;;;;;;;21.95;15.30;;;;;;;17.06;73.16;98637.97;5024860;28;20027;-79
2021/06/26 00:56:35;;;;;;;23.88;15.43;;;;;;;17.05;73.13;98638.28;5020201;28;20030;-79
2021/06/26 00:59:02;;;;;;;25.02;16.02;;;;;;;17.06;73.41;98632.44;5015540;28;20087;-79
2021/06/26 01:01:27;;;;;;;23.13;15.98;;;;;;;17.12;73.26;98633.03;5015415;28;20038;-83
2021/06/26 01:03:53;;;;;;;23.52;15.88;;;;;;;17.13;73.36;98631.06;5014212;28;20045;-84
2021/06/26 09:09:37;;;;;;;18.17;12.43;;;;;;;19.21;73.39;98686.00;5068145;27;2072895;-73
2021/06/26 09:12:07;;;;;;;22.52;12.38;;;;;;;19.34;73.59;98686.81;5095423;28;20432;-73
2021/06/26 09:14:35;;;;;;;21.35;12.32;;;;;;;19.54;73.67;98687.81;5130173;28;20027;-73
2021/06/26 09:17:01;;;;;;;16.92;10.35;;;;;;;19.76;73.70;98678.13;5130456;28;20068;-73
2021/06/26 09:19:28;;;;;;;14.20;8.82;;;;;;;19.99;73.22;98671.25;5130357;28;20032;-75
2021/06/26 09:22:09;;;;;;;14.18;7.88;;;;;;;20.26;72.38;98682.72;5130478;28;20039;-75
2021/06/26 09:24:39;;;;;;;12.88;6.68;;;;;;;20.48;71.89;98679.34;5115539;28;20024;-75
2021/06/26 09:27:05;;;;;;;15.85;10.32;;;;;;;20.69;71.06;98678.28;5108441;28;20083;-75
2021/06/26 09:29:31;;;;;;;17.20;11.52;;;;;;;20.81;70.92;98672.66;5108227;28;20034;-77
2021/06/26 09:31:57;;;;;;;14.20;9.48;;;;;;;20.93;69.51;98674.53;5108790;28;20107;-77
2021/06/26 09:34:36;;;;;;;15.32;10.20;;;;;;;21.01;70.01;98672.72;5125121;28;20029;-75
2021/06/26 09:37:09;;;;;;;13.35;8.68;;;;;;;21.05;69.07;98673.63;5129466;28;20079;-75
2021/06/26 09:39:38;;;;;;;15.07;10.13;;;;;;;21.06;68.68;98677.22;5129261;28;20110;-75
2021/06/26 09:42:17;;;;;;;15.60;10.15;;;;;;;21.14;68.34;98675.41;5130008;28;20418;-77
2021/06/26 09:44:47;;;;;;;16.50;11.05;;;;;;;21.17;68.68;98675.53;5129682;28;20020;-75
2021/06/26 09:47:24;;;;;;;15.25;10.57;;;;;;;21.24;68.30;98681.25;5130051;28;20023;-74
2021/06/26 09:49:49;;;;;;;13.93;10.20;;;;;;;21.33;67.54;98672.69;5129870;28;20032;-75
2021/06/26 09:52:14;;;;;;;17.75;10.75;;;;;;;21.41;67.62;98676.44;5129864;28;20034;-75
2021/06/26 09:54:40;;;;;;;13.82;10.05;;;;;;;21.46;67.35;98667.78;5130152;28;20027;-74
2021/06/26 09:57:06;;;;;;;20.40;11.27;;;;;;;21.54;67.20;98674.34;5129882;28;20373;-75
2021/06/26 09:59:33;;;;;;;14.45;9.18;;;;;;;21.69;66.80;98669.91;5129692;28;20076;-74
2021/06/26 10:01:59;;;;;;;12.68;9.32;;;;;;;21.78;66.50;98670.50;5129664;28;20031;-75
2021/06/26 10:04:25;;;;;;;13.00;9.48;;;;;;;21.94;66.81;98664.84;5110522;28;20114;-76
2021/06/26 10:06:52;;;;;;;13.13;9.70;;;;;;;22.06;66.15;98661.09;5129284;28;20020;-72
2021/06/26 10:09:19;;;;;;;13.20;9.25;;;;;;;22.20;64.36;98663.38;5129060;28;20108;-75
2021/06/26 10:11:46;;;;;;;18.65;12.07;;;;;;;22.19;63.59;98663.72;5129264;28;20031;-76
2021/06/26 10:14:12;;;;;;;15.15;11.10;;;;;;;22.11;64.58;98668.38;5129301;28;20156;-73
2021/06/26 10:16:40;;;;;;;16.13;12.45;;;;;;;22.06;63.49;98663.09;5129207;28;20051;-75
2021/06/26 10:19:10;;;;;;;18.23;12.02;;;;;;;21.94;63.73;98659.25;5125118;28;20547;-73
2021/06/26 10:21:35;;;;;;;19.80;15.52;;;;;;;21.85;63.56;98667.03;5115339;28;20065;-75
2021/06/26 10:24:07;;;;;;;28.90;21.92;;;;;;;21.73;64.15;98670.78;5115335;28;20027;-73
2021/06/26 10:26:37;;;;;;;26.40;21.40;;;;;;;21.66;64.36;98671.44;5115384;28;20015;-73
2021/06/26 10:29:04;;;;;;;30.40;19.70;;;;;;;21.64;64.36;98671.00;5113004;28;20027;-75
2021/06/26 10:31:35;;;;;;;19.92;13.60;;;;;;;21.56;64.53;98672.00;5114401;28;20027;-74
2021/06/26 10:34:14;;;;;;;19.27;12.40;;;;;;;21.58;65.18;98664.06;5113901;28;20231;-73
2021/06/26 10:36:43;;;;;;;14.52;10.27;;;;;;;21.66;64.88;98654.72;5114511;28;20577;-72
2021/06/26 10:39:16;;;;;;;;;;;;;;;21.79;65.23;98657.38;5115126;28;20020;-73
2021/06/26 10:41:42;;;;;;;15.00;10.13;;;;;;;21.94;65.13;98670.44;5114570;28;19912;-75
2021/06/26 10:44:07;;;;;;;19.20;11.07;;;;;;;22.04;64.85;98659.84;5115212;28;20020;-76
2021/06/26 10:46:33;;;;;;;10.45;8.23;;;;;;;22.14;63.71;98660.06;5115109;28;20485;-72
2021/06/26 10:49:06;;;;;;;14.27;8.30;;;;;;;22.23;63.75;98670.19;5114953;28;20035;-73
2021/06/26 10:51:39;;;;;;;11.48;8.38;;;;;;;22.34;63.17;98665.63;5115084;28;20026;-73
2021/06/26 10:54:18;;;;;;;13.65;8.60;;;;;;;22.43;61.99;98659.78;5115138;28;20012;-74
2021/06/26 10:56:46;;;;;;;19.03;7.70;;;;;;;22.57;61.55;98662.06;5096769;28;20383;-73
2021/06/26 10:59:14;;;;;;;11.55;6.78;;;;;;;22.74;62.20;98657.94;5114726;28;20605;-76
2021/06/26 11:01:55;;;;;;;10.48;7.13;;;;;;;22.91;62.19;98662.22;5115230;28;20387;-74
2021/06/26 11:04:20;;;;;;;12.35;7.68;;;;;;;22.96;60.06;98661.91;5114765;28;20348;-73
2021/06/26 11:06:50;;;;;;;10.80;6.70;;;;;;;22.98;61.10;98659.56;5114660;28;20027;-73
2021/06/26 11:09:15;;;;;;;10.60;7.22;;;;;;;23.03;59.58;98659.22;5114330;28;20054;-72
2021/06/26 11:11:43;;;;;;;10.38;6.65;;;;;;;23.00;60.25;98659.19;5114460;28;20511;-73
2021/06/26 11:14:15;;;;;;;7.60;6.10;;;;;;;22.97;59.40;98654.34;5114501;28;20134;-73
2021/06/26 11:16:46;;;;;;;10.77;7.38;;;;;;;22.93;59.15;98659.88;5114445;28;20024;-73
2021/06/26 11:19:11;;;;;;;11.38;7.15;;;;;;;22.89;58.26;98661.78;5114445;28;20031;-73
2021/06/26 11:21:48;;;;;;;12.38;7.80;;;;;;;22.90;58.00;98658.63;5114319;28;20027;-73
2021/06/26 11:24:15;;;;;;;7.90;6.20;;;;;;;22.89;58.86;98659.81;5095967;28;20403;-73
2021/06/26 11:26:48;;;;;;;7.57;5.70;;;;;;;22.90;58.38;98667.03;5114100;28;20022;-72
2021/06/26 11:29:34;;;;;;;9.07;6.70;;;;;;;22.92;57.63;98671.44;5114077;28;20046;-73
2021/06/26 11:32:03;;;;;;;9.68;6.93;;;;;;;22.90;58.29;98660.59;5113061;28;20697;-73
2021/06/26 11:34:29;;;;;;;8.88;6.55;;;;;;;22.89;57.24;98659.81;5114060;28;20087;-73
2021/06/26 11:37:06;;;;;;;9.82;7.30;;;;;;;22.83;56.96;98663.28;5103985;28;20159;-73
2021/06/26 11:39:34;;;;;;;7.80;6.88;;;;;;;22.75;56.53;98660.38;5093691;28;20495;-73
2021/06/26 11:42:00;;;;;;;12.27;7.05;;;;;;;22.69;57.03;98661.88;5093646;28;20035;-73
2021/06/26 11:44:37;;;;;;;11.50;7.22;;;;;;;22.72;58.01;98663.94;5093433;28;20020;-74
2021/06/26 11:47:06;;;;;;;10.13;6.20;;;;;;;22.80;56.94;98662.06;5093460;28;20028;-72
2021/06/26 11:49:40;;;;;;;11.13;6.20;;;;;;;22.85;56.39;98661.75;5093500;28;20026;-73
2021/06/26 11:52:07;;;;;;;7.50;5.30;;;;;;;22.96;57.10;98658.31;5093603;28;20653;-73
2021/06/26 11:54:33;;;;;;;7.78;5.78;;;;;;;23.12;56.17;98660.97;5093492;28;20028;-73
2021/06/26 11:56:58;;;;;;;8.23;6.05;;;;;;;23.19;56.49;98652.69;5093356;28;20531;-73
2021/06/26 11:59:29;;;;;;;8.68;6.70;;;;;;;23.26;56.26;98649.22;5093323;28;20495;-70
2021/06/26 12:01:54;;;;;;;8.75;6.07;;;;;;;23.30;55.95;98652.88;5092932;28;20103;-72
2021/06/26 12:04:28;;;;;;;7.80;6.28;;;;;;;23.42;56.42;98640.63;5092972;28;20028;-71
2021/06/26 12:06:53;;;;;;;9.82;6.32;;;;;;;23.62;55.77;98636.53;5093031;28;20012;-72
2021/06/26 12:09:23;;;;;;;8.60;5.82;;;;;;;23.73;56.05;98639.47;5092775;28;20068;-72
2021/06/26 12:11:50;;;;;;;10.73;6.93;;;;;;;23.78;55.31;98639.13;5093061;28;20070;-72
2021/06/26 12:14:16;;;;;;;10.27;6.90;;;;;;;23.84;55.44;98633.19;5093185;28;20020;-72
2021/06/26 12:16:41;;;;;;;9.15;6.90;;;;;;;23.92;55.53;98635.69;5093191;28;20020;-73
2021/06/26 12:19:09;;;;;;;11.82;7.55;;;;;;;23.99;54.58;98637.78;5093150;28;20114;-72
2021/06/26 12:21:42;;;;;;;9.60;8.23;;;;;;;23.99;54.24;98632.19;5093083;28;20027;-73
2021/06/26 12:24:08;;;;;;;13.45;8.48;;;;;;;24.01;54.02;98629.81;5093078;28;20048;-73
2021/06/26 12:26:34;;;;;;;9.75;7.90;;;;;;;24.17;53.40;98629.56;5092931;28;20655;-73
2021/06/26 12:28:59;;;;;;;11.15;8.15;;;;;;;24.28;52.83;98626.88;5093100;28;20062;-72
2021/06/26 12:31:25;;;;;;;13.27;8.77;;;;;;;24.30;52.71;98630.09;5092963;28;20103;-72
2021/06/26 12:34:06;;;;;;;9.07;8.07;;;;;;;24.25;52.40;98626.84;5092809;28;20024;-72
2021/06/26 12:36:32;;;;;;;9.60;7.65;;;;;;;24.35;53.29;98631.78;5092981;28;20024;-71
2021/06/26 12:38:58;;;;;;;10.45;7.88;;;;;;;24.48;51.65;98629.47;5074707;28;20012;-73
2021/06/26 12:41:28;;;;;;;9.15;7.25;;;;;;;24.38;50.67;98614.97;5092896;28;20020;-72
2021/06/26 12:43:55;;;;;;;11.63;6.95;;;;;;;24.27;51.42;98622.47;5092611;28;20108;-73
2021/06/26 12:46:22;;;;;;;11.02;7.43;;;;;;;24.29;51.37;98617.28;5092537;28;20033;-72
2021/06/26 12:48:53;;;;;;;10.55;7.88;;;;;;;24.40;51.92;98610.97;5104340;28;20062;-73
2021/06/26 12:51:29;;;;;;;9.38;6.78;;;;;;;24.51;52.30;98611.88;5113006;28;20024;-79
2021/06/26 12:53:57;;;;;;;8.15;6.78;;;;;;;24.58;51.98;98617.56;5113065;28;20073;-73
2021/06/26 12:56:27;;;;;;;8.88;6.85;;;;;;;24.60;51.21;98609.56;5085559;28;20020;-71
2021/06/26 12:59:03;;;;;;;8.52;7.30;;;;;;;24.55;49.58;98607.13;5094685;28;20069;-72
2021/06/26 13:01:39;;;;;;;10.23;7.45;;;;;;;24.45;50.68;98597.44;5108421;28;20184;-72
2021/06/26 13:04:07;;;;;;;10.80;7.63;;;;;;;24.41;51.25;98595.78;5111694;28;20020;-72
2021/06/26 13:06:55;;;;;;;11.63;8.18;;;;;;;24.49;51.58;98594.66;5110502;28;20024;-71
2021/06/26 13:09:31;;;;;;;12.18;8.38;;;;;;;24.51;51.59;98590.25;5111133;28;20048;-72
2021/06/26 13:12:07;;;;;;;10.02;8.32;;;;;;;24.56;51.20;98586.31;5102500;28;20020;-72
2021/06/26 13:14:38;;;;;;;9.68;8.15;;;;;;;24.57;50.96;98584.28;5092573;28;20020;-72
2021/06/26 13:17:03;;;;;;;10.95;8.20;;;;;;;24.63;51.33;98586.38;5074350;28;20081;-73
2021/06/26 13:19:29;;;;;;;8.52;7.55;;;;;;;24.82;51.95;98581.72;5092369;28;20016;-73
2021/06/26 13:21:54;;;;;;;8.95;7.78;;;;;;;25.13;51.91;98579.50;5092149;28;20054;-73
2021/06/26 13:24:20;;;;;;;10.68;7.30;;;;;;;25.46;51.30;98577.72;5092291;28;20067;-73
2021/06/26 13:26:46;;;;;;;10.50;8.52;;;;;;;25.62;51.04;98560.53;5092360;28;20466;-72
2021/06/26 13:29:12;;;;;;;11.68;7.60;;;;;;;25.97;49.78;98569.44;5092481;28;20028;-72
2021/06/26 13:31:37;;;;;;;9.80;7.90;;;;;;;26.12;48.70;98570.28;5092784;28;20057;-72
2021/06/26 13:34:03;;;;;;;8.27;6.57;;;;;;;26.32;48.86;98561.50;5092607;28;20031;-72
2021/06/26 13:36:29;;;;;;;11.00;7.05;;;;;;;26.51;48.83;98558.28;5092704;28;20021;-72
2021/06/26 13:38:54;;;;;;;7.78;6.97;;;;;;;26.74;48.78;98560.69;5092151;28;20487;-72
2021/06/26 13:41:20;;;;;;;7.30;6.05;;;;;;;27.10;48.57;98567.50;5092815;28;20020;-72
2021/06/26 13:43:46;;;;;;;7.13;6.18;;;;;;;27.65;46.98;98563.31;5092809;28;20503;-71
2021/06/26 13:46:11;;;;;;;8.15;5.68;;;;;;;28.02;46.14;98561.91;5092744;28;20016;-70
2021/06/26 13:48:37;;;;;;;7.72;6.05;;;;;;;28.28;45.31;98561.78;5092761;28;20412;-70
2021/06/26 13:51:03;;;;;;;8.27;6.28;;;;;;;28.61;44.05;98568.72;5092684;28;20024;-71
2021/06/26 13:53:28;;;;;;;6.82;5.63;;;;;;;29.10;43.54;98567.91;5092854;28;20024;-70
2021/06/26 13:55:54;;;;;;;10.35;7.45;;;;;;;29.40;40.19;98572.84;5095942;28;20027;-70
2021/06/26 13:58:20;;;;;;;6.97;6.20;;;;;;;29.31;40.13;98566.06;5096510;28;20027;-72
2021/06/26 14:00:47;;;;;;;9.98;6.93;;;;;;;29.18;41.29;98572.25;5096609;28;20032;-72
2021/06/26 14:03:13;;;;;;;7.22;6.07;;;;;;;29.49;41.89;98557.41;5096333;28;20032;-73
2021/06/26 14:05:38;;;;;;;7.43;6.10;;;;;;;29.49;40.79;98552.56;5096097;28;20103;-72
2021/06/26 14:08:04;;;;;;;6.72;6.03;;;;;;;29.37;40.88;98538.97;5106930;28;20052;-73
2021/06/26 14:10:31;;;;;;;7.38;5.60;;;;;;;29.26;40.95;98551.19;5116429;28;20089;-73
2021/06/26 14:12:57;;;;;;;6.22;4.90;;;;;;;29.19;40.50;98561.75;5110122;28;20030;-72
2021/06/26 14:15:23;;;;;;;5.05;4.55;;;;;;;28.98;39.27;98563.59;5116473;28;20095;-69
2021/06/26 14:17:49;;;;;;;7.15;4.25;;;;;;;28.79;38.75;98556.53;5105673;28;20032;-71
2021/06/26 14:20:15;;;;;;;8.52;4.90;;;;;;;28.60;39.31;98555.06;5104543;28;20089;-74
2021/06/26 14:22:41;;;;;;;8.57;5.53;;;;;;;28.48;39.37;98551.53;5106390;28;20042;-72
2021/06/26 14:25:07;;;;;;;4.97;4.22;;;;;;;28.42;40.34;98546.75;5105462;28;20023;-73
2021/06/26 14:27:33;;;;;;;4.25;3.58;;;;;;;28.60;38.22;98543.78;5104133;28;20439;-72
2021/06/26 14:29:58;;;;;;;4.75;3.85;;;;;;;28.88;38.48;98542.72;5104855;28;20494;-74
2021/06/26 14:32:24;;;;;;;5.10;4.38;;;;;;;29.23;37.58;98525.81;5103310;28;20103;-72
2021/06/26 14:34:50;;;;;;;4.70;4.10;;;;;;;29.74;38.33;98533.66;5104795;28;20043;-73
2021/06/26 14:37:16;;;;;;;4.82;4.35;;;;;;;30.34;38.33;98525.50;5095079;28;20031;-73
2021/06/26 14:39:41;;;;;;;8.10;4.50;;;;;;;30.84;36.56;98535.19;5095137;28;20032;-73
2021/06/26 14:42:07;;;;;;;6.28;4.63;;;;;;;31.41;37.75;98535.34;5095166;28;20496;-73
2021/06/26 14:44:33;;;;;;;6.55;4.60;;;;;;;32.08;38.43;98528.59;5095084;28;20395;-73
2021/06/26 14:46:58;;;;;;;5.85;5.10;;;;;;;32.60;37.32;98533.88;5092228;28;20384;-70
2021/06/26 14:49:24;;;;;;;6.68;4.65;;;;;;;33.16;36.94;98535.66;5093887;28;20035;-71
2021/06/26 14:51:50;;;;;;;6.10;4.78;;;;;;;33.56;34.59;98534.53;5094108;28;20031;-72
2021/06/26 14:54:16;;;;;;;5.90;4.93;;;;;;;33.73;34.70;98546.59;5094466;28;20480;-72
2021/06/26 14:56:41;;;;;;;5.90;5.13;;;;;;;33.69;35.15;98543.88;5095227;28;20032;-73
2021/06/26 14:59:07;;;;;;;7.85;5.07;;;;;;;33.29;32.58;98549.09;5113658;28;20032;-72
2021/06/26 15:01:33;;;;;;;6.72;4.93;;;;;;;32.76;33.83;98544.41;5115705;28;20039;-73
2021/06/26 15:03:58;;;;;;;7.13;5.28;;;;;;;32.67;34.40;98545.03;5115447;28;20016;-72
2021/06/26 15:06:24;;;;;;;7.38;5.60;;;;;;;32.64;33.21;98529.69;5097204;28;20107;-73
2021/06/26 15:08:49;;;;;;;7.72;5.20;;;;;;;32.63;31.39;98545.13;5115242;28;20039;-73
2021/06/26 15:11:15;;;;;;;6.75;4.97;;;;;;;32.47;31.28;98548.78;5115639;28;20020;-73
2021/06/26 15:13:40;;;;;;;5.68;4.78;;;;;;;32.48;32.67;98556.06;5115071;28;20027;-72
2021/06/26 15:16:06;;;;;;;6.40;5.25;;;;;;;32.12;31.46;98551.22;5115073;28;20360;-71
2021/06/26 15:18:31;;;;;;;7.88;5.57;;;;;;;31.61;31.66;98545.84;5114176;28;20085;-71
2021/06/26 15:20:57;;;;;;;7.78;6.25;;;;;;;31.18;33.44;98542.66;5115163;28;20015;-70
2021/06/26 15:23:22;;;;;;;8.48;6.18;;;;;;;30.90;33.32;98541.16;5114931;28;20028;-74
2021/06/26 15:25:48;;;;;;;5.47;4.97;;;;;;;30.55;33.73;98540.53;5109462;28;20024;-73
2021/06/26 15:28:13;;;;;;;6.50;5.57;;;;;;;30.19;34.03;98530.59;5114978;28;20433;-71
2021/06/26 15:30:39;;;;;;;6.90;5.43;;;;;;;29.86;35.05;98548.03;5115104;28;20413;-71
2021/06/26 15:33:04;;;;;;;11.73;5.85;;;;;;;29.66;35.13;98535.81;5115207;28;20024;-72
2021/06/26 15:35:30;;;;;;;5.88;5.30;;;;;;;29.43;35.85;98534.47;5096816;28;20020;-73
2021/06/26 15:37:55;;;;;;;7.75;5.80;;;;;;;29.25;35.89;98534.66;5115013;28;20035;-72
2021/06/26 15:40:21;;;;;;;7.20;5.82;;;;;;;29.05;36.04;98537.31;5114830;28;20020;-72
2021/06/26 15:42:47;;;;;;;8.48;6.28;;;;;;;28.89;37.21;98535.88;5114812;28;20051;-72
2021/06/26 15:45:13;;;;;;;8.07;6.65;;;;;;;28.64;37.21;98527.63;5106633;28;20031;-71
2021/06/26 15:47:39;;;;;;;10.75;5.90;;;;;;;28.51;37.64;98530.94;5112898;28;20034;-72
2021/06/26 15:50:06;;;;;;;7.18;5.88;;;;;;;28.44;38.36;98533.81;5113302;28;20476;-72
2021/06/26 15:52:33;;;;;;;7.32;6.53;;;;;;;28.45;38.34;98526.97;5108847;28;20124;-71
2021/06/26 15:54:59;;;;;;;6.70;5.60;;;;;;;28.38;39.10;98513.72;5113050;28;20525;-71
2021/06/26 15:57:25;;;;;;;8.40;6.47;;;;;;;28.37;39.22;98516.94;5110000;28;20031;-71
2021/06/26 15:59:50;;;;;;;10.63;8.52;;;;;;;28.31;38.95;98508.16;5110806;28;20184;-71
2021/06/26 16:02:18;;;;;;;9.55;7.57;;;;;;;28.16;38.83;98507.47;5104893;28;20130;-71
2021/06/26 16:04:45;;;;;;;8.40;7.05;;;;;;;27.98;38.97;98504.75;5091219;28;20023;-71
2021/06/26 16:07:11;;;;;;;7.70;6.47;;;;;;;27.86;39.04;98506.03;5091351;28;20020;-71
2021/06/26 16:09:36;;;;;;;7.03;5.90;;;;;;;27.75;39.78;98508.13;5091304;28;20047;-71
2021/06/26 16:12:03;;;;;;;9.30;6.45;;;;;;;27.66;40.09;98508.59;5092924;28;20044;-71
2021/06/26 16:14:28;;;;;;;10.43;7.28;;;;;;;27.56;40.04;98510.22;5093682;28;20090;-71
2021/06/26 16:16:54;;;;;;;13.85;8.35;;;;;;;27.36;40.15;98515.53;5074925;28;20032;-71
2021/06/26 16:19:19;;;;;;;16.88;8.20;;;;;;;27.13;40.14;98516.81;5093496;28;20024;-71
2021/06/26 16:21:45;;;;;;;16.17;10.13;;;;;;;26.79;40.26;98516.47;5093598;28;20456;-70
2021/06/26 16:24:10;;;;;;;8.40;6.43;;;;;;;26.60;40.94;98510.09;5093438;28;20450;-71
2021/06/26 16:26:36;;;;;;;7.90;6.68;;;;;;;26.49;41.07;98512.09;5075328;28;20512;-71
2021/06/26 16:29:01;;;;;;;12.52;8.30;;;;;;;26.44;41.71;98510.50;5092629;28;20030;-71
2021/06/26 16:31:27;;;;;;;14.77;9.10;;;;;;;26.63;42.06;98514.09;5093329;28;20585;-71
2021/06/26 16:33:52;;;;;;;7.80;7.00;;;;;;;26.83;41.71;98526.56;5093375;28;20468;-71
2021/06/26 16:36:18;;;;;;;16.63;9.40;;;;;;;26.75;41.34;98527.75;5093272;28;20039;-71
2021/06/26 16:38:52;;;;;;;10.57;7.95;;;;;;;26.48;41.14;98533.00;5093151;28;20036;-70
2021/06/26 16:41:17;;;;;;;13.95;8.07;;;;;;;26.14;41.10;98525.75;5109966;28;20111;-70
2021/06/26 16:43:43;;;;;;;13.20;8.48;;;;;;;25.85;41.90;98529.31;5111320;28;20028;-71
2021/06/26 16:46:09;;;;;;;9.55;7.30;;;;;;;25.62;42.20;98535.25;5108556;28;20100;-72
2021/06/26 16:48:36;;;;;;;16.80;8.32;;;;;;;25.42;42.72;98534.75;5113247;28;20026;-74
2021/06/26 16:51:04;;;;;;;13.00;8.05;;;;;;;25.21;42.69;98544.69;5099862;28;20078;-71
2021/06/26 16:53:30;;;;;;;15.95;9.40;;;;;;;25.09;43.26;98533.78;5111842;28;20031;-71
2021/06/26 16:55:57;;;;;;;15.82;7.93;;;;;;;24.98;43.59;98542.16;5113365;28;20087;-70
2021/06/26 16:58:26;;;;;;;16.15;9.43;;;;;;;24.78;43.98;98545.25;5112895;28;20413;-71
2021/06/26 17:00:53;;;;;;;15.57;8.73;;;;;;;24.58;43.92;98541.88;5113478;28;20027;-70
2021/06/26 17:03:18;;;;;;;12.55;8.63;;;;;;;24.31;44.75;98544.84;5113493;28;20125;-73
2021/06/26 17:05:44;;;;;;;13.48;9.43;;;;;;;24.07;45.65;98551.81;5113231;28;20016;-72
2021/06/26 17:08:11;;;;;;;13.25;9.75;;;;;;;23.89;45.91;98557.22;5112823;28;20119;-70
2021/06/26 17:10:36;;;;;;;12.25;7.13;;;;;;;23.70;46.44;98558.19;5113256;28;20170;-73
2021/06/26 17:13:02;;;;;;;13.30;8.98;;;;;;;23.55;46.98;98562.81;5110319;28;20486;-72
2021/06/26 17:15:29;;;;;;;17.60;10.50;;;;;;;23.47;47.12;98559.94;5113374;28;20032;-73
2021/06/26 17:17:55;;;;;;;13.32;8.88;;;;;;;23.45;47.62;98559.50;5104062;28;20024;-71
2021/06/26 17:20:20;;;;;;;15.20;9.93;;;;;;;23.37;47.70;98571.81;5105466;28;20024;-73
2021/06/26 17:22:45;;;;;;;16.40;11.88;;;;;;;23.34;47.86;98573.38;5110513;28;20105;-71
2021/06/26 17:25:11;;;;;;;18.02;11.23;;;;;;;23.32;47.91;98580.53;5094662;28;20102;-72
2021/06/26 17:27:36;;;;;;;13.55;9.18;;;;;;;23.24;48.33;98576.81;5106537;28;20024;-73
2021/06/26 17:30:03;;;;;;;14.80;10.25;;;;;;;23.04;48.60;98578.91;5111028;28;20028;-72
2021/06/26 17:32:29;;;;;;;18.67;11.40;;;;;;;22.93;49.18;98575.97;5116875;28;20378;-72
2021/06/26 17:34:54;;;;;;;12.68;9.73;;;;;;;22.88;49.57;98573.50;5117294;28;20114;-71
2021/06/26 17:37:20;;;;;;;10.25;8.63;;;;;;;22.77;49.98;98578.13;5115688;28;20111;-72
2021/06/26 17:39:45;;;;;;;12.40;9.50;;;;;;;22.64;50.51;98575.53;5113178;28;20537;-72
2021/06/26 17:42:12;;;;;;;14.27;8.35;;;;;;;22.57;50.63;98584.63;5096755;28;20422;-72
2021/06/26 17:44:38;;;;;;;9.55;7.28;;;;;;;22.48;50.74;98577.66;5096459;28;20066;-72
2021/06/26 17:47:05;;;;;;;9.75;7.28;;;;;;;22.38;51.02;98576.25;5105160;28;20445;-72
2021/06/26 17:49:30;;;;;;;10.93;7.43;;;;;;;22.33;51.26;98580.19;5105806;28;20034;-73
2021/06/26 17:51:56;;;;;;;8.57;6.88;;;;;;;22.23;51.48;98573.22;5115883;28;20425;-73
2021/06/26 17:54:21;;;;;;;8.75;6.18;;;;;;;22.17;51.31;98580.31;5096696;28;20028;-72
2021/06/26 17:56:46;;;;;;;9.48;6.47;;;;;;;22.05;51.72;98580.47;5116716;28;20372;-73
2021/06/26 17:59:13;;;;;;;12.05;7.30;;;;;;;21.95;52.27;98581.91;5116579;28;20386;-72
2021/06/26 18:01:40;;;;;;;7.38;6.47;;;;;;;21.81;52.26;98577.66;5116689;28;20035;-72
2021/06/26 18:04:06;;;;;;;7.80;6.55;;;;;;;21.70;52.78;98577.44;5114807;28;20098;-72
2021/06/26 18:06:33;;;;;;;6.82;6.07;;;;;;;21.66;52.61;98582.16;5116307;28;20063;-71
2021/06/26 18:09:03;;;;;;;11.48;8.50;;;;;;;21.62;53.12;98580.44;5116328;28;20054;-72
2021/06/26 18:11:29;;;;;;;11.13;7.28;;;;;;;21.47;53.23;98587.69;5116163;28;20089;-72
2021/06/26 18:13:54;;;;;;;9.38;6.68;;;;;;;21.36;53.63;98579.91;5116383;28;20024;-72
2021/06/26 18:16:20;;;;;;;9.93;6.68;;;;;;;21.28;53.73;98592.09;5116288;28;20080;-72
2021/06/26 18:18:46;;;;;;;9.20;6.63;;;;;;;21.26;54.22;98588.84;5116221;28;20044;-73
2021/06/26 18:21:11;;;;;;;9.50;7.25;;;;;;;21.22;53.79;98593.53;5116281;28;20416;-72
2021/06/26 18:23:37;;;;;;;10.50;7.00;;;;;;;21.13;54.40;98599.31;5116281;28;20079;-72
2021/06/26 18:26:02;;;;;;;10.20;6.90;;;;;;;21.06;54.24;98597.16;5116191;28;20364;-72
2021/06/26 18:28:31;;;;;;;9.60;6.72;;;;;;;20.92;54.33;98602.44;5115936;28;20024;-72
2021/06/26 18:30:56;;;;;;;9.20;7.05;;;;;;;20.76;55.28;98597.66;5116082;28;20115;-73
2021/06/26 18:33:22;;;;;;;11.07;7.32;;;;;;;20.64;55.50;98608.88;5116083;28;20059;-72
2021/06/26 18:35:47;;;;;;;13.80;6.97;;;;;;;20.55;55.28;98611.06;5115931;28;20532;-72
2021/06/26 18:38:13;;;;;;;12.63;7.18;;;;;;;20.47;55.51;98613.66;5115918;28;20028;-72
2021/06/26 18:40:39;;;;;;;10.15;6.95;;;;;;;20.42;55.87;98613.94;5115277;28;20444;-72
2021/06/26 18:43:04;;;;;;;11.13;9.07;;;;;;;20.38;55.74;98621.38;5115899;28;20098;-73
2021/06/26 18:45:30;;;;;;;14.10;10.80;;;;;;;20.31;55.99;98615.63;5115977;28;20114;-72
2021/06/26 18:47:56;;;;;;;15.00;10.70;;;;;;;20.25;56.37;98617.88;5115832;28;20027;-73
2021/06/26 18:50:22;;;;;;;11.80;8.27;;;;;;;20.18;56.30;98612.91;5115724;28;20472;-72
2021/06/26 18:52:49;;;;;;;9.18;7.45;;;;;;;20.13;56.68;98620.72;5115601;28;20024;-72
2021/06/26 18:55:14;;;;;;;11.93;7.75;;;;;;;20.04;56.80;98624.47;5115678;28;20023;-72
2021/06/26 18:57:42;;;;;;;11.00;7.47;;;;;;;19.98;56.98;98623.09;5115499;28;20030;-72
2021/06/26 19:00:09;;;;;;;9.70;6.95;;;;;;;19.93;57.25;98629.75;5115333;28;20016;-72
2021/06/26 19:02:35;;;;;;;10.70;7.47;;;;;;;19.87;57.58;98630.34;5115735;28;20106;-72
2021/06/26 19:05:00;;;;;;;9.50;7.47;;;;;;;19.79;57.58;98620.94;5115435;28;20501;-72
2021/06/26 19:07:26;;;;;;;11.18;8.00;;;;;;;19.71;57.74;98630.28;5097228;28;20027;-73
2021/06/26 19:09:51;;;;;;;11.27;7.75;;;;;;;19.61;57.95;98634.34;5115234;28;20122;-73
2021/06/26 19:12:17;;;;;;;10.57;8.25;;;;;;;19.57;58.23;98641.78;5115016;28;20030;-72
2021/06/26 19:14:42;;;;;;;14.60;7.95;;;;;;;19.51;58.57;98637.66;5114861;28;20024;-72
2021/06/26 19:17:08;;;;;;;11.07;8.20;;;;;;;19.46;58.62;98649.81;5114921;28;20019;-72
2021/06/26 19:19:33;;;;;;;11.02;8.75;;;;;;;19.38;58.71;98647.97;5114715;28;20107;-72
2021/06/26 19:21:59;;;;;;;14.15;9.77;;;;;;;19.29;58.92;98646.16;5114795;28;20115;-72
2021/06/26 19:24:25;;;;;;;15.63;9.35;;;;;;;19.25;59.21;98656.34;5114688;28;20051;-72
2021/06/26 19:26:50;;;;;;;16.48;11.23;;;;;;;19.15;59.28;98651.25;5114820;28;20024;-73
2021/06/26 19:29:15;;;;;;;16.55;11.23;;;;;;;19.10;59.78;98643.16;5096616;28;20059;-72